sensor_id;sensor_type;location;lat;lon;timestamp;P1;durP1;ratioP1;P2;durP2;ratioP2
22470;SDS011;11402;51.374;6.594;2022-12-20T00:01:05;10.40;;;5.20;;
22470;SDS011;11402;51.374;6.594;2022-12-20T00:03:36;12.20;;;5.38;;
22470;SDS011;11402;51.374;6.594;2022-12-20T00:06:02;9.50;;;4.55;;
22470;SDS011;11402;51.374;6.594;2022-12-20T00:08:28;7.50;;;4.38;;
22470;SDS011;11402;51.374;6.594;2022-12-20T00:10:54;6.10;;;4.38;;
22470;SDS011;11402;51.374;6.594;2022-12-20T00:13:19;6.70;;;4.13;;
22470;SDS011;11402;51.374;6.594;2022-12-20T00:15:45;6.38;;;4.40;;
22470;SDS011;11402;51.374;6.594;2022-12-20T00:18:10;8.82;;;4.22;;
22470;SDS011;11402;51.374;6.594;2022-12-20T00:20:36;6.57;;;4.00;;
22470;SDS011;11402;51.374;6.594;2022-12-20T00:23:02;6.25;;;3.88;;
22470;SDS011;11402;51.374;6.594;2022-12-20T00:25:27;5.97;;;3.85;;
22470;SDS011;11402;51.374;6.594;2022-12-20T00:27:53;8.80;;;3.58;;
22470;SDS011;11402;51.374;6.594;2022-12-20T00:30:19;5.07;;;3.22;;
22470;SDS011;11402;51.374;6.594;2022-12-20T00:32:44;6.85;;;3.95;;
22470;SDS011;11402;51.374;6.594;2022-12-20T00:35:11;8.32;;;3.75;;
22470;SDS011;11402;51.374;6.594;2022-12-20T00:37:36;8.85;;;3.40;;
22470;SDS011;11402;51.374;6.594;2022-12-20T00:40:03;6.38;;;3.10;;
22470;SDS011;11402;51.374;6.594;2022-12-20T00:42:29;6.65;;;3.35;;
22470;SDS011;11402;51.374;6.594;2022-12-20T00:44:55;4.25;;;2.85;;
22470;SDS011;11402;51.374;6.594;2022-12-20T00:47:21;4.82;;;2.88;;
22470;SDS011;11402;51.374;6.594;2022-12-20T00:49:46;8.57;;;3.13;;
22470;SDS011;11402;51.374;6.594;2022-12-20T00:52:12;6.28;;;2.92;;
22470;SDS011;11402;51.374;6.594;2022-12-20T00:54:37;7.82;;;3.25;;
22470;SDS011;11402;51.374;6.594;2022-12-20T00:57:03;4.75;;;2.72;;
22470;SDS011;11402;51.374;6.594;2022-12-20T00:59:29;5.35;;;2.75;;
22470;SDS011;11402;51.374;6.594;2022-12-20T01:01:54;5.88;;;2.70;;
22470;SDS011;11402;51.374;6.594;2022-12-20T01:04:20;4.43;;;2.88;;
22470;SDS011;11402;51.374;6.594;2022-12-20T01:06:45;5.85;;;2.33;;
22470;SDS011;11402;51.374;6.594;2022-12-20T01:09:11;4.40;;;2.28;;
22470;SDS011;11402;51.374;6.594;2022-12-20T01:11:37;4.75;;;2.28;;
22470;SDS011;11402;51.374;6.594;2022-12-20T01:14:05;4.40;;;2.38;;
22470;SDS011;11402;51.374;6.594;2022-12-20T01:16:39;4.68;;;2.20;;
22470;SDS011;11402;51.374;6.594;2022-12-20T01:19:07;5.53;;;2.40;;
22470;SDS011;11402;51.374;6.594;2022-12-20T01:21:35;6.63;;;2.40;;
22470;SDS011;11402;51.374;6.594;2022-12-20T01:24:00;6.10;;;2.20;;
22470;SDS011;11402;51.374;6.594;2022-12-20T01:26:26;3.83;;;2.05;;
22470;SDS011;11402;51.374;6.594;2022-12-20T01:28:54;3.92;;;2.00;;
22470;SDS011;11402;51.374;6.594;2022-12-20T01:31:21;3.13;;;2.05;;
22470;SDS011;11402;51.374;6.594;2022-12-20T01:33:48;3.88;;;1.90;;
22470;SDS011;11402;51.374;6.594;2022-12-20T01:36:19;4.93;;;2.00;;
22470;SDS011;11402;51.374;6.594;2022-12-20T01:38:49;7.32;;;2.10;;
22470;SDS011;11402;51.374;6.594;2022-12-20T01:41:16;4.03;;;2.40;;
22470;SDS011;11402;51.374;6.594;2022-12-20T01:43:45;3.70;;;1.80;;
22470;SDS011;11402;51.374;6.594;2022-12-20T01:46:15;3.70;;;1.55;;
22470;SDS011;11402;51.374;6.594;2022-12-20T01:48:42;4.32;;;2.40;;
22470;SDS011;11402;51.374;6.594;2022-12-20T01:51:35;2.90;;;1.25;;
22470;SDS011;11402;51.374;6.594;2022-12-20T01:54:10;3.42;;;1.90;;
22470;SDS011;11402;51.374;6.594;2022-12-20T01:56:44;2.92;;;1.73;;
22470;SDS011;11402;51.374;6.594;2022-12-20T01:59:17;4.85;;;2.33;;
22470;SDS011;11402;51.374;6.594;2022-12-20T02:01:44;6.63;;;1.95;;
22470;SDS011;11402;51.374;6.594;2022-12-20T02:04:10;3.45;;;2.08;;
22470;SDS011;11402;51.374;6.594;2022-12-20T02:06:35;3.55;;;1.90;;
22470;SDS011;11402;51.374;6.594;2022-12-20T02:09:02;3.65;;;1.88;;
22470;SDS011;11402;51.374;6.594;2022-12-20T02:11:47;6.30;;;2.17;;
22470;SDS011;11402;51.374;6.594;2022-12-20T02:16:56;5.07;;;2.00;;
22470;SDS011;11402;51.374;6.594;2022-12-20T02:30:17;3.75;;;1.70;;
22470;SDS011;11402;51.374;6.594;2022-12-20T02:32:48;4.25;;;1.90;;
22470;SDS011;11402;51.374;6.594;2022-12-20T02:35:25;4.97;;;2.28;;
22470;SDS011;11402;51.374;6.594;2022-12-20T02:37:55;5.32;;;2.60;;
22470;SDS011;11402;51.374;6.594;2022-12-20T02:40:25;5.97;;;2.47;;
22470;SDS011;11402;51.374;6.594;2022-12-20T02:43:09;5.78;;;2.28;;
22470;SDS011;11402;51.374;6.594;2022-12-20T02:45:56;6.85;;;2.15;;
22470;SDS011;11402;51.374;6.594;2022-12-20T02:48:24;4.63;;;2.40;;
22470;SDS011;11402;51.374;6.594;2022-12-20T02:50:53;5.00;;;2.47;;
22470;SDS011;11402;51.374;6.594;2022-12-20T02:53:21;5.45;;;2.38;;
22470;SDS011;11402;51.374;6.594;2022-12-20T02:58:57;4.72;;;2.58;;
22470;SDS011;11402;51.374;6.594;2022-12-20T03:01:46;4.90;;;2.72;;
22470;SDS011;11402;51.374;6.594;2022-12-20T03:04:17;3.92;;;2.50;;
22470;SDS011;11402;51.374;6.594;2022-12-20T03:06:55;4.32;;;2.60;;
22470;SDS011;11402;51.374;6.594;2022-12-20T03:09:23;5.95;;;2.65;;
22470;SDS011;11402;51.374;6.594;2022-12-20T03:11:48;5.70;;;2.90;;
22470;SDS011;11402;51.374;6.594;2022-12-20T03:14:14;5.35;;;2.67;;
22470;SDS011;11402;51.374;6.594;2022-12-20T03:16:40;3.67;;;2.78;;
22470;SDS011;11402;51.374;6.594;2022-12-20T03:19:05;4.47;;;3.10;;
22470;SDS011;11402;51.374;6.594;2022-12-20T03:21:31;5.18;;;2.90;;
22470;SDS011;11402;51.374;6.594;2022-12-20T03:23:57;5.20;;;2.85;;
22470;SDS011;11402;51.374;6.594;2022-12-20T03:26:22;6.80;;;2.90;;
22470;SDS011;11402;51.374;6.594;2022-12-20T03:28:48;5.70;;;2.90;;
22470;SDS011;11402;51.374;6.594;2022-12-20T03:31:13;5.60;;;2.97;;
22470;SDS011;11402;51.374;6.594;2022-12-20T03:33:39;5.70;;;3.20;;
22470;SDS011;11402;51.374;6.594;2022-12-20T03:36:04;4.65;;;2.80;;
22470;SDS011;11402;51.374;6.594;2022-12-20T03:38:30;5.95;;;3.20;;
22470;SDS011;11402;51.374;6.594;2022-12-20T03:40:55;10.68;;;3.75;;
22470;SDS011;11402;51.374;6.594;2022-12-20T03:43:21;9.32;;;4.57;;
22470;SDS011;11402;51.374;6.594;2022-12-20T03:45:47;11.63;;;4.75;;
22470;SDS011;11402;51.374;6.594;2022-12-20T03:48:12;8.77;;;5.90;;
22470;SDS011;11402;51.374;6.594;2022-12-20T03:50:38;10.00;;;6.50;;
22470;SDS011;11402;51.374;6.594;2022-12-20T03:53:03;13.13;;;6.65;;
22470;SDS011;11402;51.374;6.594;2022-12-20T03:55:29;14.57;;;6.95;;
22470;SDS011;11402;51.374;6.594;2022-12-20T03:57:54;14.50;;;7.60;;
22470;SDS011;11402;51.374;6.594;2022-12-20T04:00:20;10.52;;;6.72;;
22470;SDS011;11402;51.374;6.594;2022-12-20T04:02:46;11.98;;;7.10;;
22470;SDS011;11402;51.374;6.594;2022-12-20T04:05:11;12.77;;;6.32;;
22470;SDS011;11402;51.374;6.594;2022-12-20T04:07:37;10.55;;;6.32;;
22470;SDS011;11402;51.374;6.594;2022-12-20T04:10:03;11.48;;;6.88;;
22470;SDS011;11402;51.374;6.594;2022-12-20T04:12:29;10.70;;;6.10;;
22470;SDS011;11402;51.374;6.594;2022-12-20T04:14:54;15.27;;;6.60;;
22470;SDS011;11402;51.374;6.594;2022-12-20T04:17:20;12.80;;;6.22;;
22470;SDS011;11402;51.374;6.594;2022-12-20T04:19:45;11.80;;;7.05;;
22470;SDS011;11402;51.374;6.594;2022-12-20T04:22:11;12.90;;;6.28;;
22470;SDS011;11402;51.374;6.594;2022-12-20T04:24:36;13.13;;;6.20;;
22470;SDS011;11402;51.374;6.594;2022-12-20T04:27:02;14.55;;;6.45;;
22470;SDS011;11402;51.374;6.594;2022-12-20T04:29:28;8.82;;;6.20;;
22470;SDS011;11402;51.374;6.594;2022-12-20T04:31:53;9.70;;;6.20;;
22470;SDS011;11402;51.374;6.594;2022-12-20T04:34:19;10.65;;;6.05;;
22470;SDS011;11402;51.374;6.594;2022-12-20T04:36:44;12.00;;;7.22;;
22470;SDS011;11402;51.374;6.594;2022-12-20T04:39:10;11.93;;;7.35;;
22470;SDS011;11402;51.374;6.594;2022-12-20T04:41:36;14.38;;;8.30;;
22470;SDS011;11402;51.374;6.594;2022-12-20T04:44:01;11.65;;;8.50;;
22470;SDS011;11402;51.374;6.594;2022-12-20T04:46:27;14.95;;;8.25;;
22470;SDS011;11402;51.374;6.594;2022-12-20T04:48:52;12.93;;;8.02;;
22470;SDS011;11402;51.374;6.594;2022-12-20T04:51:18;13.55;;;7.55;;
22470;SDS011;11402;51.374;6.594;2022-12-20T04:53:44;11.60;;;8.55;;
22470;SDS011;11402;51.374;6.594;2022-12-20T04:56:17;10.50;;;8.48;;
22470;SDS011;11402;51.374;6.594;2022-12-20T04:58:45;10.90;;;7.82;;
22470;SDS011;11402;51.374;6.594;2022-12-20T05:01:12;11.45;;;7.75;;
22470;SDS011;11402;51.374;6.594;2022-12-20T05:03:37;14.25;;;8.30;;
22470;SDS011;11402;51.374;6.594;2022-12-20T05:06:03;11.52;;;7.60;;
22470;SDS011;11402;51.374;6.594;2022-12-20T05:08:30;12.27;;;7.78;;
22470;SDS011;11402;51.374;6.594;2022-12-20T05:10:55;12.80;;;7.72;;
22470;SDS011;11402;51.374;6.594;2022-12-20T05:13:21;12.18;;;7.40;;
22470;SDS011;11402;51.374;6.594;2022-12-20T05:15:50;12.20;;;7.80;;
22470;SDS011;11402;51.374;6.594;2022-12-20T05:18:16;12.95;;;7.93;;
22470;SDS011;11402;51.374;6.594;2022-12-20T05:20:42;10.73;;;7.70;;
22470;SDS011;11402;51.374;6.594;2022-12-20T05:23:08;13.73;;;7.45;;
22470;SDS011;11402;51.374;6.594;2022-12-20T05:25:53;12.43;;;7.70;;
22470;SDS011;11402;51.374;6.594;2022-12-20T05:28:38;13.52;;;7.70;;
22470;SDS011;11402;51.374;6.594;2022-12-20T05:31:04;13.98;;;7.25;;
22470;SDS011;11402;51.374;6.594;2022-12-20T05:33:29;12.88;;;7.05;;
22470;SDS011;11402;51.374;6.594;2022-12-20T05:35:55;12.27;;;6.72;;
22470;SDS011;11402;51.374;6.594;2022-12-20T05:38:21;15.10;;;7.78;;
22470;SDS011;11402;51.374;6.594;2022-12-20T05:40:47;10.88;;;7.32;;
22470;SDS011;11402;51.374;6.594;2022-12-20T05:43:14;13.57;;;7.85;;
22470;SDS011;11402;51.374;6.594;2022-12-20T05:45:44;10.77;;;7.30;;
22470;SDS011;11402;51.374;6.594;2022-12-20T05:48:16;11.98;;;7.78;;
22470;SDS011;11402;51.374;6.594;2022-12-20T05:50:43;9.95;;;7.35;;
22470;SDS011;11402;51.374;6.594;2022-12-20T05:53:13;10.50;;;7.78;;
22470;SDS011;11402;51.374;6.594;2022-12-20T05:55:42;11.45;;;7.70;;
22470;SDS011;11402;51.374;6.594;2022-12-20T05:58:12;12.60;;;7.70;;
22470;SDS011;11402;51.374;6.594;2022-12-20T06:00:41;12.20;;;7.53;;
22470;SDS011;11402;51.374;6.594;2022-12-20T06:03:07;13.57;;;7.80;;
22470;SDS011;11402;51.374;6.594;2022-12-20T06:05:35;12.13;;;7.80;;
22470;SDS011;11402;51.374;6.594;2022-12-20T06:08:01;12.13;;;7.90;;
22470;SDS011;11402;51.374;6.594;2022-12-20T06:10:27;13.40;;;8.18;;
22470;SDS011;11402;51.374;6.594;2022-12-20T06:12:53;14.07;;;8.00;;
22470;SDS011;11402;51.374;6.594;2022-12-20T06:15:18;15.52;;;8.50;;
22470;SDS011;11402;51.374;6.594;2022-12-20T06:17:44;15.38;;;7.88;;
22470;SDS011;11402;51.374;6.594;2022-12-20T06:20:10;12.95;;;7.95;;
22470;SDS011;11402;51.374;6.594;2022-12-20T06:22:36;15.40;;;8.70;;
22470;SDS011;11402;51.374;6.594;2022-12-20T06:25:02;12.73;;;8.48;;
22470;SDS011;11402;51.374;6.594;2022-12-20T06:27:27;15.52;;;8.27;;
22470;SDS011;11402;51.374;6.594;2022-12-20T06:29:53;18.17;;;7.50;;
22470;SDS011;11402;51.374;6.594;2022-12-20T06:32:18;9.25;;;8.02;;
22470;SDS011;11402;51.374;6.594;2022-12-20T06:34:44;17.60;;;7.82;;
22470;SDS011;11402;51.374;6.594;2022-12-20T06:37:10;11.57;;;6.78;;
22470;SDS011;11402;51.374;6.594;2022-12-20T06:39:36;13.55;;;7.00;;
22470;SDS011;11402;51.374;6.594;2022-12-20T06:42:02;11.00;;;7.15;;
22470;SDS011;11402;51.374;6.594;2022-12-20T06:44:28;12.05;;;7.70;;
22470;SDS011;11402;51.374;6.594;2022-12-20T06:46:53;13.18;;;6.85;;
22470;SDS011;11402;51.374;6.594;2022-12-20T06:49:19;12.25;;;6.72;;
22470;SDS011;11402;51.374;6.594;2022-12-20T06:51:46;13.30;;;7.30;;
22470;SDS011;11402;51.374;6.594;2022-12-20T06:54:12;9.75;;;7.13;;
22470;SDS011;11402;51.374;6.594;2022-12-20T06:56:38;12.57;;;7.30;;
22470;SDS011;11402;51.374;6.594;2022-12-20T06:59:04;9.93;;;6.60;;
22470;SDS011;11402;51.374;6.594;2022-12-20T07:01:30;11.60;;;6.88;;
22470;SDS011;11402;51.374;6.594;2022-12-20T07:03:55;10.65;;;6.55;;
22470;SDS011;11402;51.374;6.594;2022-12-20T07:06:21;11.60;;;6.57;;
22470;SDS011;11402;51.374;6.594;2022-12-20T07:08:47;11.32;;;5.93;;
22470;SDS011;11402;51.374;6.594;2022-12-20T07:11:12;12.10;;;5.90;;
22470;SDS011;11402;51.374;6.594;2022-12-20T07:13:38;14.50;;;6.35;;
22470;SDS011;11402;51.374;6.594;2022-12-20T07:16:03;11.85;;;6.30;;
22470;SDS011;11402;51.374;6.594;2022-12-20T07:18:29;11.35;;;6.88;;
22470;SDS011;11402;51.374;6.594;2022-12-20T07:21:02;11.02;;;5.85;;
22470;SDS011;11402;51.374;6.594;2022-12-20T07:23:29;14.18;;;6.38;;
22470;SDS011;11402;51.374;6.594;2022-12-20T07:25:55;9.07;;;6.07;;
22470;SDS011;11402;51.374;6.594;2022-12-20T07:28:23;9.05;;;5.85;;
22470;SDS011;11402;51.374;6.594;2022-12-20T07:30:50;11.70;;;6.05;;
22470;SDS011;11402;51.374;6.594;2022-12-20T07:33:16;10.43;;;5.47;;
22470;SDS011;11402;51.374;6.594;2022-12-20T07:35:41;10.27;;;5.40;;
22470;SDS011;11402;51.374;6.594;2022-12-20T07:38:09;9.15;;;5.40;;
22470;SDS011;11402;51.374;6.594;2022-12-20T07:40:35;9.85;;;5.68;;
22470;SDS011;11402;51.374;6.594;2022-12-20T07:43:04;12.77;;;5.53;;
22470;SDS011;11402;51.374;6.594;2022-12-20T07:45:30;8.43;;;5.65;;
22470;SDS011;11402;51.374;6.594;2022-12-20T07:47:55;8.23;;;5.30;;
22470;SDS011;11402;51.374;6.594;2022-12-20T07:50:21;6.50;;;4.72;;
22470;SDS011;11402;51.374;6.594;2022-12-20T07:52:48;11.85;;;5.20;;
22470;SDS011;11402;51.374;6.594;2022-12-20T07:55:14;9.77;;;4.88;;
22470;SDS011;11402;51.374;6.594;2022-12-20T07:57:45;9.38;;;4.72;;
22470;SDS011;11402;51.374;6.594;2022-12-20T08:00:16;11.82;;;4.93;;
22470;SDS011;11402;51.374;6.594;2022-12-20T08:02:53;9.40;;;4.72;;
22470;SDS011;11402;51.374;6.594;2022-12-20T08:05:29;7.68;;;4.70;;
22470;SDS011;11402;51.374;6.594;2022-12-20T08:07:55;11.65;;;4.60;;
22470;SDS011;11402;51.374;6.594;2022-12-20T08:10:23;6.78;;;4.43;;
22470;SDS011;11402;51.374;6.594;2022-12-20T08:12:48;8.55;;;4.47;;
22470;SDS011;11402;51.374;6.594;2022-12-20T08:15:15;8.13;;;4.65;;
22470;SDS011;11402;51.374;6.594;2022-12-20T08:17:40;8.20;;;4.30;;
22470;SDS011;11402;51.374;6.594;2022-12-20T08:20:06;11.25;;;4.60;;
22470;SDS011;11402;51.374;6.594;2022-12-20T08:22:32;6.72;;;4.05;;
22470;SDS011;11402;51.374;6.594;2022-12-20T08:24:59;8.35;;;4.13;;
22470;SDS011;11402;51.374;6.594;2022-12-20T08:27:24;7.05;;;4.22;;
22470;SDS011;11402;51.374;6.594;2022-12-20T08:29:50;9.10;;;4.75;;
22470;SDS011;11402;51.374;6.594;2022-12-20T08:32:15;9.38;;;4.00;;
22470;SDS011;11402;51.374;6.594;2022-12-20T08:34:41;6.00;;;3.75;;
22470;SDS011;11402;51.374;6.594;2022-12-20T08:37:07;7.50;;;3.80;;
22470;SDS011;11402;51.374;6.594;2022-12-20T08:39:32;6.55;;;3.85;;
22470;SDS011;11402;51.374;6.594;2022-12-20T08:41:58;7.13;;;3.80;;
22470;SDS011;11402;51.374;6.594;2022-12-20T08:44:24;8.10;;;4.03;;
22470;SDS011;11402;51.374;6.594;2022-12-20T08:46:49;8.15;;;3.85;;
22470;SDS011;11402;51.374;6.594;2022-12-20T08:49:15;8.82;;;4.47;;
22470;SDS011;11402;51.374;6.594;2022-12-20T08:51:41;6.85;;;4.00;;
22470;SDS011;11402;51.374;6.594;2022-12-20T08:54:07;10.18;;;4.45;;
22470;SDS011;11402;51.374;6.594;2022-12-20T08:56:32;7.95;;;4.43;;
22470;SDS011;11402;51.374;6.594;2022-12-20T08:58:58;9.00;;;4.50;;
22470;SDS011;11402;51.374;6.594;2022-12-20T09:01:24;7.15;;;4.60;;
22470;SDS011;11402;51.374;6.594;2022-12-20T09:03:51;8.10;;;4.60;;
22470;SDS011;11402;51.374;6.594;2022-12-20T09:06:20;11.00;;;4.78;;
22470;SDS011;11402;51.374;6.594;2022-12-20T09:08:47;9.55;;;4.13;;
22470;SDS011;11402;51.374;6.594;2022-12-20T09:13:41;8.10;;;4.82;;
22470;SDS011;11402;51.374;6.594;2022-12-20T09:16:08;5.93;;;3.70;;
22470;SDS011;11402;51.374;6.594;2022-12-20T09:18:34;7.63;;;4.40;;
22470;SDS011;11402;51.374;6.594;2022-12-20T09:21:01;5.43;;;3.80;;
22470;SDS011;11402;51.374;6.594;2022-12-20T09:23:29;7.18;;;4.40;;
22470;SDS011;11402;51.374;6.594;2022-12-20T09:26:07;7.85;;;4.03;;
22470;SDS011;11402;51.374;6.594;2022-12-20T09:28:35;6.72;;;4.00;;
22470;SDS011;11402;51.374;6.594;2022-12-20T09:31:02;6.57;;;3.72;;
22470;SDS011;11402;51.374;6.594;2022-12-20T09:33:30;7.90;;;3.92;;
22470;SDS011;11402;51.374;6.594;2022-12-20T09:35:57;10.57;;;4.13;;
22470;SDS011;11402;51.374;6.594;2022-12-20T09:38:24;7.03;;;4.22;;
22470;SDS011;11402;51.374;6.594;2022-12-20T09:40:50;6.75;;;3.88;;
22470;SDS011;11402;51.374;6.594;2022-12-20T09:43:19;10.88;;;3.85;;
22470;SDS011;11402;51.374;6.594;2022-12-20T09:45:46;8.63;;;4.63;;
22470;SDS011;11402;51.374;6.594;2022-12-20T09:48:20;8.80;;;4.05;;
22470;SDS011;11402;51.374;6.594;2022-12-20T09:56:43;5.90;;;4.07;;
22470;SDS011;11402;51.374;6.594;2022-12-20T09:59:19;6.75;;;3.25;;
22470;SDS011;11402;51.374;6.594;2022-12-20T10:01:46;6.35;;;3.95;;
22470;SDS011;11402;51.374;6.594;2022-12-20T10:10:02;8.95;;;4.13;;
22470;SDS011;11402;51.374;6.594;2022-12-20T10:12:35;8.50;;;3.63;;
22470;SDS011;11402;51.374;6.594;2022-12-20T10:17:53;6.50;;;3.55;;
22470;SDS011;11402;51.374;6.594;2022-12-20T10:20:59;5.47;;;3.35;;
22470;SDS011;11402;51.374;6.594;2022-12-20T10:23:45;7.88;;;3.50;;
22470;SDS011;11402;51.374;6.594;2022-12-20T10:26:15;7.78;;;3.55;;
22470;SDS011;11402;51.374;6.594;2022-12-20T10:28:41;6.82;;;3.60;;
22470;SDS011;11402;51.374;6.594;2022-12-20T10:31:09;8.25;;;4.03;;
22470;SDS011;11402;51.374;6.594;2022-12-20T10:33:38;7.65;;;3.75;;
22470;SDS011;11402;51.374;6.594;2022-12-20T10:38:52;9.50;;;3.78;;
22470;SDS011;11402;51.374;6.594;2022-12-20T10:41:24;7.72;;;3.95;;
22470;SDS011;11402;51.374;6.594;2022-12-20T10:44:01;7.13;;;3.70;;
22470;SDS011;11402;51.374;6.594;2022-12-20T10:46:46;7.07;;;3.88;;
22470;SDS011;11402;51.374;6.594;2022-12-20T10:49:31;5.22;;;3.58;;
22470;SDS011;11402;51.374;6.594;2022-12-20T10:52:07;5.82;;;3.35;;
22470;SDS011;11402;51.374;6.594;2022-12-20T10:54:43;7.97;;;3.72;;
22470;SDS011;11402;51.374;6.594;2022-12-20T10:59:38;7.88;;;4.18;;
22470;SDS011;11402;51.374;6.594;2022-12-20T11:05:16;8.52;;;3.97;;
22470;SDS011;11402;51.374;6.594;2022-12-20T11:07:56;7.53;;;3.95;;
22470;SDS011;11402;51.374;6.594;2022-12-20T11:10:25;8.70;;;4.18;;
22470;SDS011;11402;51.374;6.594;2022-12-20T11:12:53;7.90;;;3.70;;
22470;SDS011;11402;51.374;6.594;2022-12-20T11:15:24;7.15;;;3.63;;
22470;SDS011;11402;51.374;6.594;2022-12-20T11:17:55;7.75;;;3.60;;
22470;SDS011;11402;51.374;6.594;2022-12-20T11:23:07;11.85;;;3.90;;
22470;SDS011;11402;51.374;6.594;2022-12-20T11:36:40;7.75;;;3.90;;
22470;SDS011;11402;51.374;6.594;2022-12-20T11:39:31;7.05;;;3.70;;
22470;SDS011;11402;51.374;6.594;2022-12-20T11:44:57;4.68;;;3.28;;
22470;SDS011;11402;51.374;6.594;2022-12-20T11:47:59;6.25;;;3.20;;
22470;SDS011;11402;51.374;6.594;2022-12-20T11:53:39;5.47;;;3.15;;
22470;SDS011;11402;51.374;6.594;2022-12-20T11:56:16;6.78;;;3.40;;
22470;SDS011;11402;51.374;6.594;2022-12-20T11:58:48;7.60;;;3.00;;
22470;SDS011;11402;51.374;6.594;2022-12-20T12:01:17;7.30;;;3.58;;
22470;SDS011;11402;51.374;6.594;2022-12-20T12:06:58;6.75;;;3.10;;
22470;SDS011;11402;51.374;6.594;2022-12-20T12:09:35;5.85;;;3.10;;
22470;SDS011;11402;51.374;6.594;2022-12-20T12:17:36;5.00;;;3.28;;
22470;SDS011;11402;51.374;6.594;2022-12-20T12:20:55;7.53;;;3.05;;
22470;SDS011;11402;51.374;6.594;2022-12-20T12:23:00;7.28;;;3.20;;
22470;SDS011;11402;51.374;6.594;2022-12-20T12:25:41;4.03;;;2.75;;
22470;SDS011;11402;51.374;6.594;2022-12-20T12:28:08;6.93;;;2.80;;
22470;SDS011;11402;51.374;6.594;2022-12-20T12:30:38;7.05;;;3.00;;
22470;SDS011;11402;51.374;6.594;2022-12-20T12:33:13;6.22;;;3.00;;
22470;SDS011;11402;51.374;6.594;2022-12-20T12:46:42;6.68;;;2.90;;
22470;SDS011;11402;51.374;6.594;2022-12-20T12:49:19;5.78;;;2.63;;
22470;SDS011;11402;51.374;6.594;2022-12-20T12:51:54;5.13;;;3.10;;
22470;SDS011;11402;51.374;6.594;2022-12-20T12:54:23;4.75;;;3.15;;
22470;SDS011;11402;51.374;6.594;2022-12-20T12:56:53;7.57;;;3.40;;
22470;SDS011;11402;51.374;6.594;2022-12-20T13:04:28;5.85;;;3.55;;
22470;SDS011;11402;51.374;6.594;2022-12-20T13:07:02;7.85;;;3.67;;
22470;SDS011;11402;51.374;6.594;2022-12-20T13:09:48;7.70;;;3.65;;
22470;SDS011;11402;51.374;6.594;2022-12-20T13:15:02;8.70;;;3.90;;
22470;SDS011;11402;51.374;6.594;2022-12-20T13:20:35;9.98;;;4.30;;
22470;SDS011;11402;51.374;6.594;2022-12-20T13:25:33;7.03;;;4.20;;
22470;SDS011;11402;51.374;6.594;2022-12-20T13:33:43;9.15;;;4.60;;
22470;SDS011;11402;51.374;6.594;2022-12-20T13:38:58;6.95;;;4.22;;
22470;SDS011;11402;51.374;6.594;2022-12-20T13:41:30;9.75;;;4.45;;
22470;SDS011;11402;51.374;6.594;2022-12-20T13:44:00;12.15;;;5.03;;
22470;SDS011;11402;51.374;6.594;2022-12-20T13:46:56;9.90;;;5.00;;
22470;SDS011;11402;51.374;6.594;2022-12-20T13:49:35;8.43;;;5.20;;
22470;SDS011;11402;51.374;6.594;2022-12-20T13:52:11;9.00;;;4.95;;
22470;SDS011;11402;51.374;6.594;2022-12-20T13:54:42;8.50;;;4.40;;
22470;SDS011;11402;51.374;6.594;2022-12-20T13:57:16;10.02;;;5.10;;
22470;SDS011;11402;51.374;6.594;2022-12-20T13:59:47;12.00;;;4.85;;
22470;SDS011;11402;51.374;6.594;2022-12-20T14:02:50;9.95;;;4.80;;
22470;SDS011;11402;51.374;6.594;2022-12-20T14:05:18;7.78;;;4.40;;
22470;SDS011;11402;51.374;6.594;2022-12-20T14:07:53;8.70;;;4.57;;
22470;SDS011;11402;51.374;6.594;2022-12-20T14:10:24;7.40;;;4.50;;
22470;SDS011;11402;51.374;6.594;2022-12-20T14:12:51;8.68;;;4.70;;
22470;SDS011;11402;51.374;6.594;2022-12-20T14:15:25;10.93;;;4.85;;
22470;SDS011;11402;51.374;6.594;2022-12-20T14:17:55;11.63;;;4.32;;
22470;SDS011;11402;51.374;6.594;2022-12-20T14:20:22;8.30;;;4.22;;
22470;SDS011;11402;51.374;6.594;2022-12-20T14:23:10;9.30;;;4.22;;
22470;SDS011;11402;51.374;6.594;2022-12-20T14:25:41;10.18;;;4.68;;
22470;SDS011;11402;51.374;6.594;2022-12-20T14:28:15;7.03;;;4.28;;
22470;SDS011;11402;51.374;6.594;2022-12-20T14:31:03;10.05;;;4.95;;
22470;SDS011;11402;51.374;6.594;2022-12-20T14:36:06;9.98;;;4.85;;
22470;SDS011;11402;51.374;6.594;2022-12-20T14:38:42;8.52;;;4.45;;
22470;SDS011;11402;51.374;6.594;2022-12-20T14:44:12;9.45;;;4.60;;
22470;SDS011;11402;51.374;6.594;2022-12-20T14:46:51;8.98;;;4.30;;
22470;SDS011;11402;51.374;6.594;2022-12-20T14:49:23;7.03;;;4.07;;
22470;SDS011;11402;51.374;6.594;2022-12-20T14:52:05;8.25;;;4.22;;
22470;SDS011;11402;51.374;6.594;2022-12-20T14:55:07;7.70;;;4.38;;
22470;SDS011;11402;51.374;6.594;2022-12-20T14:58:05;5.97;;;4.00;;
22470;SDS011;11402;51.374;6.594;2022-12-20T15:00:54;10.40;;;3.97;;
22470;SDS011;11402;51.374;6.594;2022-12-20T15:03:22;7.50;;;3.95;;
22470;SDS011;11402;51.374;6.594;2022-12-20T15:05:49;7.38;;;3.88;;
22470;SDS011;11402;51.374;6.594;2022-12-20T15:08:21;8.07;;;4.03;;
22470;SDS011;11402;51.374;6.594;2022-12-20T15:13:43;7.15;;;3.58;;
22470;SDS011;11402;51.374;6.594;2022-12-20T15:16:16;6.40;;;3.65;;
22470;SDS011;11402;51.374;6.594;2022-12-20T15:18:47;7.65;;;3.42;;
22470;SDS011;11402;51.374;6.594;2022-12-20T15:21:14;7.20;;;3.85;;
22470;SDS011;11402;51.374;6.594;2022-12-20T15:23:50;10.15;;;4.68;;
22470;SDS011;11402;51.374;6.594;2022-12-20T15:28:44;8.10;;;4.55;;
22470;SDS011;11402;51.374;6.594;2022-12-20T15:31:11;7.35;;;4.22;;
22470;SDS011;11402;51.374;6.594;2022-12-20T15:33:39;8.68;;;4.43;;
22470;SDS011;11402;51.374;6.594;2022-12-20T15:36:06;6.55;;;4.28;;
22470;SDS011;11402;51.374;6.594;2022-12-20T15:38:37;10.05;;;4.78;;
22470;SDS011;11402;51.374;6.594;2022-12-20T15:41:03;9.98;;;4.95;;
22470;SDS011;11402;51.374;6.594;2022-12-20T15:43:32;7.93;;;5.07;;
22470;SDS011;11402;51.374;6.594;2022-12-20T15:46:01;9.95;;;4.57;;
22470;SDS011;11402;51.374;6.594;2022-12-20T15:48:27;7.55;;;5.38;;
22470;SDS011;11402;51.374;6.594;2022-12-20T15:50:54;10.32;;;6.75;;
22470;SDS011;11402;51.374;6.594;2022-12-20T15:53:23;10.05;;;5.82;;
22470;SDS011;11402;51.374;6.594;2022-12-20T15:55:52;7.88;;;4.95;;
22470;SDS011;11402;51.374;6.594;2022-12-20T15:58:18;9.82;;;5.22;;
22470;SDS011;11402;51.374;6.594;2022-12-20T16:00:44;9.85;;;5.53;;
22470;SDS011;11402;51.374;6.594;2022-12-20T16:03:14;8.90;;;5.18;;
22470;SDS011;11402;51.374;6.594;2022-12-20T16:05:42;12.63;;;6.22;;
22470;SDS011;11402;51.374;6.594;2022-12-20T16:08:08;9.00;;;6.18;;
22470;SDS011;11402;51.374;6.594;2022-12-20T16:10:33;13.10;;;6.45;;
22470;SDS011;11402;51.374;6.594;2022-12-20T16:12:59;11.85;;;5.32;;
22470;SDS011;11402;51.374;6.594;2022-12-20T16:15:24;14.80;;;8.32;;
22470;SDS011;11402;51.374;6.594;2022-12-20T16:17:50;13.82;;;8.45;;
22470;SDS011;11402;51.374;6.594;2022-12-20T16:20:16;17.08;;;9.43;;
22470;SDS011;11402;51.374;6.594;2022-12-20T16:22:44;18.30;;;8.13;;
22470;SDS011;11402;51.374;6.594;2022-12-20T16:25:23;12.63;;;7.55;;
22470;SDS011;11402;51.374;6.594;2022-12-20T16:27:51;14.88;;;7.55;;
22470;SDS011;11402;51.374;6.594;2022-12-20T16:30:17;13.48;;;7.68;;
22470;SDS011;11402;51.374;6.594;2022-12-20T16:32:42;14.63;;;7.35;;
22470;SDS011;11402;51.374;6.594;2022-12-20T16:35:24;11.68;;;6.88;;
22470;SDS011;11402;51.374;6.594;2022-12-20T16:37:53;14.02;;;7.45;;
22470;SDS011;11402;51.374;6.594;2022-12-20T16:40:20;16.60;;;7.63;;
22470;SDS011;11402;51.374;6.594;2022-12-20T16:42:46;13.30;;;7.47;;
22470;SDS011;11402;51.374;6.594;2022-12-20T16:45:15;13.10;;;8.27;;
22470;SDS011;11402;51.374;6.594;2022-12-20T16:47:45;14.82;;;9.00;;
22470;SDS011;11402;51.374;6.594;2022-12-20T16:50:11;18.27;;;10.10;;